sensor_id;sensor_type;location;lat;lon;timestamp;P1;durP1;ratioP1;P2;durP2;ratioP2
7253;SDS011;4060;49.186;9.226;2022-12-07T00:00:16;5.50;;;5.00;;
7253;SDS011;4060;49.186;9.226;2022-12-07T00:02:47;5.50;;;5.00;;
7253;SDS011;4060;49.186;9.226;2022-12-07T00:05:17;5.25;;;4.75;;
7253;SDS011;4060;49.186;9.226;2022-12-07T00:07:47;5.30;;;4.80;;
7253;SDS011;4060;49.186;9.226;2022-12-07T00:10:17;5.65;;;5.05;;
7253;SDS011;4060;49.186;9.226;2022-12-07T00:12:47;5.28;;;4.78;;
7253;SDS011;4060;49.186;9.226;2022-12-07T00:15:17;5.85;;;5.20;;
7253;SDS011;4060;49.186;9.226;2022-12-07T00:17:49;5.18;;;4.43;;
7253;SDS011;4060;49.186;9.226;2022-12-07T00:20:18;5.57;;;5.07;;
7253;SDS011;4060;49.186;9.226;2022-12-07T00:22:48;5.60;;;5.10;;
7253;SDS011;4060;49.186;9.226;2022-12-07T00:25:17;4.88;;;4.47;;
7253;SDS011;4060;49.186;9.226;2022-12-07T00:27:46;5.20;;;4.72;;
7253;SDS011;4060;49.186;9.226;2022-12-07T00:30:16;5.93;;;5.28;;
7253;SDS011;4060;49.186;9.226;2022-12-07T00:32:45;5.07;;;4.68;;
7253;SDS011;4060;49.186;9.226;2022-12-07T00:35:17;5.50;;;5.00;;
7253;SDS011;4060;49.186;9.226;2022-12-07T00:37:47;5.45;;;4.95;;
7253;SDS011;4060;49.186;9.226;2022-12-07T00:40:16;5.50;;;4.97;;
7253;SDS011;4060;49.186;9.226;2022-12-07T00:42:46;4.90;;;4.47;;
7253;SDS011;4060;49.186;9.226;2022-12-07T00:45:15;5.00;;;4.50;;
7253;SDS011;4060;49.186;9.226;2022-12-07T00:47:44;5.68;;;5.05;;
7253;SDS011;4060;49.186;9.226;2022-12-07T00:50:14;5.20;;;4.70;;
7253;SDS011;4060;49.186;9.226;2022-12-07T00:52:45;5.55;;;4.78;;
7253;SDS011;4060;49.186;9.226;2022-12-07T00:55:15;6.00;;;5.40;;
7253;SDS011;4060;49.186;9.226;2022-12-07T00:57:45;4.50;;;4.07;;
7253;SDS011;4060;49.186;9.226;2022-12-07T01:00:14;5.28;;;4.38;;
7253;SDS011;4060;49.186;9.226;2022-12-07T01:02:44;5.75;;;5.15;;
7253;SDS011;4060;49.186;9.226;2022-12-07T01:05:14;6.03;;;5.35;;
7253;SDS011;4060;49.186;9.226;2022-12-07T01:07:46;4.75;;;4.28;;
7253;SDS011;4060;49.186;9.226;2022-12-07T01:10:17;5.40;;;4.90;;
7253;SDS011;4060;49.186;9.226;2022-12-07T01:12:48;5.20;;;4.70;;
7253;SDS011;4060;49.186;9.226;2022-12-07T01:15:18;5.28;;;4.78;;
7253;SDS011;4060;49.186;9.226;2022-12-07T01:17:47;5.45;;;4.90;;
7253;SDS011;4060;49.186;9.226;2022-12-07T01:20:21;5.25;;;4.75;;
7253;SDS011;4060;49.186;9.226;2022-12-07T01:22:51;5.00;;;4.50;;
7253;SDS011;4060;49.186;9.226;2022-12-07T01:25:21;5.32;;;4.82;;
7253;SDS011;4060;49.186;9.226;2022-12-07T01:27:50;5.25;;;4.75;;
7253;SDS011;4060;49.186;9.226;2022-12-07T01:30:19;5.10;;;4.65;;
7253;SDS011;4060;49.186;9.226;2022-12-07T01:32:49;4.97;;;4.50;;
7253;SDS011;4060;49.186;9.226;2022-12-07T01:35:20;5.07;;;4.47;;
7253;SDS011;4060;49.186;9.226;2022-12-07T01:37:50;5.97;;;5.15;;
7253;SDS011;4060;49.186;9.226;2022-12-07T01:40:19;5.40;;;4.90;;
7253;SDS011;4060;49.186;9.226;2022-12-07T01:42:48;5.53;;;5.03;;
7253;SDS011;4060;49.186;9.226;2022-12-07T01:48:13;4.75;;;4.35;;
7253;SDS011;4060;49.186;9.226;2022-12-07T01:50:48;5.72;;;5.15;;
7253;SDS011;4060;49.186;9.226;2022-12-07T01:53:20;5.35;;;4.85;;
7253;SDS011;4060;49.186;9.226;2022-12-07T01:55:53;5.32;;;4.93;;
7253;SDS011;4060;49.186;9.226;2022-12-07T01:58:24;5.13;;;4.63;;
7253;SDS011;4060;49.186;9.226;2022-12-07T02:00:54;5.03;;;4.53;;
7253;SDS011;4060;49.186;9.226;2022-12-07T02:03:25;5.25;;;4.75;;
7253;SDS011;4060;49.186;9.226;2022-12-07T02:06:01;5.50;;;4.95;;
7253;SDS011;4060;49.186;9.226;2022-12-07T02:08:32;5.38;;;4.88;;
7253;SDS011;4060;49.186;9.226;2022-12-07T02:11:02;5.10;;;4.60;;
7253;SDS011;4060;49.186;9.226;2022-12-07T02:13:34;6.65;;;5.05;;
7253;SDS011;4060;49.186;9.226;2022-12-07T02:16:16;6.10;;;5.60;;
7253;SDS011;4060;49.186;9.226;2022-12-07T02:19:07;5.20;;;4.70;;
7253;SDS011;4060;49.186;9.226;2022-12-07T02:22:07;6.15;;;5.20;;
7253;SDS011;4060;49.186;9.226;2022-12-07T02:24:53;5.43;;;4.93;;
7253;SDS011;4060;49.186;9.226;2022-12-07T02:27:29;5.95;;;5.35;;
7253;SDS011;4060;49.186;9.226;2022-12-07T02:30:16;6.35;;;5.28;;
7253;SDS011;4060;49.186;9.226;2022-12-07T02:32:51;5.78;;;5.28;;
7253;SDS011;4060;49.186;9.226;2022-12-07T02:35:28;5.63;;;5.10;;
7253;SDS011;4060;49.186;9.226;2022-12-07T02:38:03;6.32;;;5.68;;
7253;SDS011;4060;49.186;9.226;2022-12-07T02:40:40;6.07;;;5.57;;
7253;SDS011;4060;49.186;9.226;2022-12-07T02:43:17;6.13;;;5.57;;
7253;SDS011;4060;49.186;9.226;2022-12-07T02:45:52;5.93;;;5.32;;
7253;SDS011;4060;49.186;9.226;2022-12-07T02:48:25;6.72;;;6.03;;
7253;SDS011;4060;49.186;9.226;2022-12-07T02:50:55;6.18;;;5.57;;
7253;SDS011;4060;49.186;9.226;2022-12-07T02:53:29;5.88;;;5.18;;
7253;SDS011;4060;49.186;9.226;2022-12-07T02:56:03;6.28;;;5.68;;
7253;SDS011;4060;49.186;9.226;2022-12-07T02:58:42;6.05;;;5.50;;
7253;SDS011;4060;49.186;9.226;2022-12-07T03:01:24;6.93;;;5.68;;
7253;SDS011;4060;49.186;9.226;2022-12-07T03:04:07;6.18;;;5.32;;
7253;SDS011;4060;49.186;9.226;2022-12-07T03:06:52;6.47;;;5.75;;
7253;SDS011;4060;49.186;9.226;2022-12-07T03:09:26;7.05;;;6.22;;
7253;SDS011;4060;49.186;9.226;2022-12-07T03:12:05;6.72;;;5.75;;
7253;SDS011;4060;49.186;9.226;2022-12-07T03:14:41;6.80;;;6.13;;
7253;SDS011;4060;49.186;9.226;2022-12-07T03:17:21;6.13;;;5.53;;
7253;SDS011;4060;49.186;9.226;2022-12-07T03:19:54;7.10;;;6.40;;
7253;SDS011;4060;49.186;9.226;2022-12-07T03:22:27;6.65;;;6.05;;
7253;SDS011;4060;49.186;9.226;2022-12-07T03:25:04;7.10;;;6.40;;
7253;SDS011;4060;49.186;9.226;2022-12-07T03:27:38;6.80;;;6.10;;
7253;SDS011;4060;49.186;9.226;2022-12-07T03:30:10;7.40;;;6.70;;
7253;SDS011;4060;49.186;9.226;2022-12-07T03:32:45;7.18;;;6.47;;
7253;SDS011;4060;49.186;9.226;2022-12-07T03:35:22;6.60;;;6.00;;
7253;SDS011;4060;49.186;9.226;2022-12-07T03:37:57;6.72;;;6.13;;
7253;SDS011;4060;49.186;9.226;2022-12-07T03:40:33;7.50;;;6.78;;
7253;SDS011;4060;49.186;9.226;2022-12-07T03:43:08;8.00;;;6.30;;
7253;SDS011;4060;49.186;9.226;2022-12-07T03:45:38;6.57;;;5.72;;
7253;SDS011;4060;49.186;9.226;2022-12-07T03:48:13;7.38;;;6.57;;
7253;SDS011;4060;49.186;9.226;2022-12-07T03:50:50;6.82;;;6.15;;
7253;SDS011;4060;49.186;9.226;2022-12-07T03:53:24;7.20;;;6.50;;
7253;SDS011;4060;49.186;9.226;2022-12-07T03:55:59;6.63;;;5.97;;
7253;SDS011;4060;49.186;9.226;2022-12-07T03:58:30;7.00;;;6.30;;
7253;SDS011;4060;49.186;9.226;2022-12-07T04:01:01;6.75;;;6.07;;
7253;SDS011;4060;49.186;9.226;2022-12-07T04:03:34;6.85;;;6.25;;
7253;SDS011;4060;49.186;9.226;2022-12-07T04:06:10;7.75;;;6.95;;
7253;SDS011;4060;49.186;9.226;2022-12-07T04:08:39;6.55;;;5.95;;
7253;SDS011;4060;49.186;9.226;2022-12-07T04:11:09;6.90;;;6.20;;
7253;SDS011;4060;49.186;9.226;2022-12-07T04:13:38;6.95;;;6.25;;
7253;SDS011;4060;49.186;9.226;2022-12-07T04:16:27;6.97;;;6.38;;
7253;SDS011;4060;49.186;9.226;2022-12-07T04:18:58;6.45;;;5.80;;
7253;SDS011;4060;49.186;9.226;2022-12-07T04:21:27;7.00;;;6.40;;
7253;SDS011;4060;49.186;9.226;2022-12-07T04:23:56;7.00;;;6.30;;
7253;SDS011;4060;49.186;9.226;2022-12-07T04:26:26;7.00;;;6.40;;
7253;SDS011;4060;49.186;9.226;2022-12-07T04:28:55;7.05;;;6.38;;
7253;SDS011;4060;49.186;9.226;2022-12-07T04:31:25;7.13;;;6.43;;
7253;SDS011;4060;49.186;9.226;2022-12-07T04:33:56;7.55;;;6.78;;
7253;SDS011;4060;49.186;9.226;2022-12-07T04:36:27;6.95;;;6.25;;
7253;SDS011;4060;49.186;9.226;2022-12-07T04:38:56;7.13;;;6.47;;
7253;SDS011;4060;49.186;9.226;2022-12-07T04:41:25;7.53;;;6.82;;
7253;SDS011;4060;49.186;9.226;2022-12-07T04:43:55;7.00;;;6.30;;
7253;SDS011;4060;49.186;9.226;2022-12-07T04:46:26;7.93;;;7.13;;
7253;SDS011;4060;49.186;9.226;2022-12-07T04:48:59;7.30;;;6.60;;
7253;SDS011;4060;49.186;9.226;2022-12-07T04:51:29;6.80;;;6.20;;
7253;SDS011;4060;49.186;9.226;2022-12-07T04:53:58;7.72;;;7.03;;
7253;SDS011;4060;49.186;9.226;2022-12-07T04:56:28;7.13;;;6.43;;
7253;SDS011;4060;49.186;9.226;2022-12-07T04:58:57;6.75;;;6.05;;
7253;SDS011;4060;49.186;9.226;2022-12-07T05:01:27;7.75;;;6.95;;
7253;SDS011;4060;49.186;9.226;2022-12-07T05:04:00;7.25;;;6.55;;
7253;SDS011;4060;49.186;9.226;2022-12-07T05:06:30;7.60;;;6.88;;
7253;SDS011;4060;49.186;9.226;2022-12-07T05:09:00;7.22;;;6.53;;
7253;SDS011;4060;49.186;9.226;2022-12-07T05:11:30;6.82;;;6.13;;
7253;SDS011;4060;49.186;9.226;2022-12-07T05:14:11;8.45;;;6.22;;
7253;SDS011;4060;49.186;9.226;2022-12-07T05:16:41;7.22;;;6.53;;
7253;SDS011;4060;49.186;9.226;2022-12-07T05:19:14;7.15;;;6.35;;
7253;SDS011;4060;49.186;9.226;2022-12-07T05:21:44;7.05;;;6.38;;
7253;SDS011;4060;49.186;9.226;2022-12-07T05:24:14;7.70;;;6.95;;
7253;SDS011;4060;49.186;9.226;2022-12-07T05:26:44;7.55;;;6.72;;
7253;SDS011;4060;49.186;9.226;2022-12-07T05:29:14;7.65;;;6.70;;
7253;SDS011;4060;49.186;9.226;2022-12-07T05:31:44;8.23;;;7.43;;
7253;SDS011;4060;49.186;9.226;2022-12-07T05:34:16;7.22;;;6.40;;
7253;SDS011;4060;49.186;9.226;2022-12-07T05:36:45;7.30;;;6.47;;
7253;SDS011;4060;49.186;9.226;2022-12-07T05:39:18;7.72;;;6.95;;
7253;SDS011;4060;49.186;9.226;2022-12-07T05:41:48;8.02;;;7.30;;
7253;SDS011;4060;49.186;9.226;2022-12-07T05:44:34;7.07;;;6.47;;
7253;SDS011;4060;49.186;9.226;2022-12-07T05:47:03;8.00;;;7.05;;
7253;SDS011;4060;49.186;9.226;2022-12-07T05:49:34;7.57;;;6.78;;
7253;SDS011;4060;49.186;9.226;2022-12-07T05:52:04;7.78;;;6.97;;
7253;SDS011;4060;49.186;9.226;2022-12-07T05:54:33;7.45;;;6.72;;
7253;SDS011;4060;49.186;9.226;2022-12-07T05:57:03;7.00;;;6.30;;
7253;SDS011;4060;49.186;9.226;2022-12-07T05:59:32;7.57;;;6.78;;
7253;SDS011;4060;49.186;9.226;2022-12-07T06:02:01;8.38;;;7.43;;
7253;SDS011;4060;49.186;9.226;2022-12-07T06:04:32;7.38;;;6.53;;
7253;SDS011;4060;49.186;9.226;2022-12-07T06:07:08;8.35;;;7.55;;
7253;SDS011;4060;49.186;9.226;2022-12-07T06:09:39;7.47;;;6.78;;
7253;SDS011;4060;49.186;9.226;2022-12-07T06:12:09;8.48;;;7.20;;
7253;SDS011;4060;49.186;9.226;2022-12-07T06:14:56;7.18;;;6.47;;
7253;SDS011;4060;49.186;9.226;2022-12-07T06:17:25;7.75;;;7.05;;
7253;SDS011;4060;49.186;9.226;2022-12-07T06:19:56;7.80;;;7.00;;
7253;SDS011;4060;49.186;9.226;2022-12-07T06:22:25;7.93;;;6.97;;
7253;SDS011;4060;49.186;9.226;2022-12-07T06:24:55;7.05;;;6.35;;
7253;SDS011;4060;49.186;9.226;2022-12-07T06:27:25;7.78;;;6.97;;
7253;SDS011;4060;49.186;9.226;2022-12-07T06:29:54;8.65;;;6.85;;
7253;SDS011;4060;49.186;9.226;2022-12-07T06:32:23;7.78;;;6.97;;
7253;SDS011;4060;49.186;9.226;2022-12-07T06:34:54;8.48;;;6.97;;
7253;SDS011;4060;49.186;9.226;2022-12-07T06:37:25;8.50;;;7.60;;
7253;SDS011;4060;49.186;9.226;2022-12-07T06:39:55;8.70;;;7.80;;
7253;SDS011;4060;49.186;9.226;2022-12-07T06:42:24;7.70;;;6.88;;
7253;SDS011;4060;49.186;9.226;2022-12-07T06:44:53;7.95;;;7.07;;
7253;SDS011;4060;49.186;9.226;2022-12-07T06:47:23;7.88;;;7.03;;
7253;SDS011;4060;49.186;9.226;2022-12-07T06:49:52;8.27;;;7.45;;
7253;SDS011;4060;49.186;9.226;2022-12-07T06:52:23;8.50;;;7.60;;
7253;SDS011;4060;49.186;9.226;2022-12-07T06:54:52;8.00;;;7.20;;
7253;SDS011;4060;49.186;9.226;2022-12-07T06:57:22;8.05;;;7.30;;
7253;SDS011;4060;49.186;9.226;2022-12-07T06:59:52;8.73;;;7.82;;
7253;SDS011;4060;49.186;9.226;2022-12-07T07:02:21;8.48;;;7.60;;
7253;SDS011;4060;49.186;9.226;2022-12-07T07:04:50;8.63;;;7.43;;
7253;SDS011;4060;49.186;9.226;2022-12-07T07:07:20;7.63;;;6.90;;
7253;SDS011;4060;49.186;9.226;2022-12-07T07:09:52;8.48;;;7.57;;
7253;SDS011;4060;49.186;9.226;2022-12-07T07:12:21;8.95;;;7.65;;
7253;SDS011;4060;49.186;9.226;2022-12-07T07:14:51;8.10;;;7.30;;
7253;SDS011;4060;49.186;9.226;2022-12-07T07:17:20;8.35;;;7.55;;
7253;SDS011;4060;49.186;9.226;2022-12-07T07:19:50;8.45;;;7.63;;
7253;SDS011;4060;49.186;9.226;2022-12-07T07:22:19;8.25;;;7.45;;
7253;SDS011;4060;49.186;9.226;2022-12-07T07:24:51;8.35;;;7.47;;
7253;SDS011;4060;49.186;9.226;2022-12-07T07:27:20;8.52;;;7.72;;
7253;SDS011;4060;49.186;9.226;2022-12-07T07:29:49;8.55;;;7.68;;
7253;SDS011;4060;49.186;9.226;2022-12-07T07:32:19;9.40;;;8.40;;
7253;SDS011;4060;49.186;9.226;2022-12-07T07:34:48;10.30;;;8.45;;
7253;SDS011;4060;49.186;9.226;2022-12-07T07:37:18;8.55;;;7.65;;
7253;SDS011;4060;49.186;9.226;2022-12-07T07:39:48;8.38;;;7.47;;
7253;SDS011;4060;49.186;9.226;2022-12-07T07:42:19;9.32;;;8.02;;
7253;SDS011;4060;49.186;9.226;2022-12-07T07:44:48;9.18;;;8.02;;
7253;SDS011;4060;49.186;9.226;2022-12-07T07:47:17;8.93;;;7.78;;
7253;SDS011;4060;49.186;9.226;2022-12-07T07:49:47;8.48;;;7.30;;
7253;SDS011;4060;49.186;9.226;2022-12-07T07:52:16;9.45;;;7.93;;
7253;SDS011;4060;49.186;9.226;2022-12-07T07:54:46;9.45;;;8.30;;
7253;SDS011;4060;49.186;9.226;2022-12-07T07:57:16;9.30;;;8.13;;
7253;SDS011;4060;49.186;9.226;2022-12-07T07:59:47;10.00;;;8.57;;
7253;SDS011;4060;49.186;9.226;2022-12-07T08:02:18;9.18;;;8.07;;
7253;SDS011;4060;49.186;9.226;2022-12-07T08:04:50;9.35;;;8.35;;
7253;SDS011;4060;49.186;9.226;2022-12-07T08:07:20;10.13;;;8.80;;
7253;SDS011;4060;49.186;9.226;2022-12-07T08:09:50;9.20;;;8.30;;
7253;SDS011;4060;49.186;9.226;2022-12-07T08:12:19;9.60;;;8.45;;
7253;SDS011;4060;49.186;9.226;2022-12-07T08:14:51;10.00;;;8.55;;
7253;SDS011;4060;49.186;9.226;2022-12-07T08:17:20;9.85;;;8.85;;
7253;SDS011;4060;49.186;9.226;2022-12-07T08:19:50;9.70;;;8.70;;
7253;SDS011;4060;49.186;9.226;2022-12-07T08:22:20;9.98;;;8.82;;
7253;SDS011;4060;49.186;9.226;2022-12-07T08:24:50;9.95;;;8.55;;
7253;SDS011;4060;49.186;9.226;2022-12-07T08:27:20;9.88;;;8.88;;
7253;SDS011;4060;49.186;9.226;2022-12-07T08:29:55;10.27;;;8.52;;
7253;SDS011;4060;49.186;9.226;2022-12-07T08:32:24;9.65;;;8.55;;
7253;SDS011;4060;49.186;9.226;2022-12-07T08:34:53;9.88;;;7.82;;
7253;SDS011;4060;49.186;9.226;2022-12-07T08:37:23;10.35;;;8.93;;
7253;SDS011;4060;49.186;9.226;2022-12-07T08:39:52;11.68;;;9.73;;
7253;SDS011;4060;49.186;9.226;2022-12-07T08:42:22;9.57;;;8.50;;
7253;SDS011;4060;49.186;9.226;2022-12-07T08:44:58;11.30;;;9.77;;
7253;SDS011;4060;49.186;9.226;2022-12-07T08:47:27;10.48;;;8.85;;
7253;SDS011;4060;49.186;9.226;2022-12-07T08:49:58;9.50;;;8.55;;
7253;SDS011;4060;49.186;9.226;2022-12-07T08:52:29;9.32;;;8.07;;
7253;SDS011;4060;49.186;9.226;2022-12-07T08:54:59;9.57;;;8.40;;
7253;SDS011;4060;49.186;9.226;2022-12-07T08:57:29;10.75;;;9.00;;
7253;SDS011;4060;49.186;9.226;2022-12-07T09:00:03;13.32;;;8.88;;
7253;SDS011;4060;49.186;9.226;2022-12-07T09:02:32;10.10;;;8.70;;
7253;SDS011;4060;49.186;9.226;2022-12-07T09:05:02;10.25;;;9.02;;
7253;SDS011;4060;49.186;9.226;2022-12-07T09:07:32;10.63;;;9.45;;
7253;SDS011;4060;49.186;9.226;2022-12-07T09:10:03;10.88;;;9.20;;
7253;SDS011;4060;49.186;9.226;2022-12-07T09:12:33;10.73;;;9.63;;
7253;SDS011;4060;49.186;9.226;2022-12-07T09:15:05;11.50;;;8.80;;
7253;SDS011;4060;49.186;9.226;2022-12-07T09:17:35;10.32;;;8.98;;
7253;SDS011;4060;49.186;9.226;2022-12-07T09:20:04;10.77;;;9.50;;
7253;SDS011;4060;49.186;9.226;2022-12-07T09:22:34;9.52;;;8.52;;
7253;SDS011;4060;49.186;9.226;2022-12-07T09:25:04;10.07;;;9.07;;
7253;SDS011;4060;49.186;9.226;2022-12-07T09:27:34;10.02;;;8.40;;
7253;SDS011;4060;49.186;9.226;2022-12-07T09:30:07;10.43;;;9.27;;
7253;SDS011;4060;49.186;9.226;2022-12-07T09:32:37;12.13;;;9.10;;
7253;SDS011;4060;49.186;9.226;2022-12-07T09:35:06;10.98;;;8.40;;
7253;SDS011;4060;49.186;9.226;2022-12-07T09:37:36;10.90;;;9.20;;
7253;SDS011;4060;49.186;9.226;2022-12-07T09:40:05;9.50;;;8.48;;
7253;SDS011;4060;49.186;9.226;2022-12-07T09:42:36;10.75;;;9.65;;
7253;SDS011;4060;49.186;9.226;2022-12-07T09:45:11;9.60;;;8.50;;
7253;SDS011;4060;49.186;9.226;2022-12-07T09:47:44;10.10;;;8.75;;
7253;SDS011;4060;49.186;9.226;2022-12-07T09:50:14;9.88;;;8.57;;
7253;SDS011;4060;49.186;9.226;2022-12-07T09:52:45;11.18;;;8.93;;
7253;SDS011;4060;49.186;9.226;2022-12-07T09:55:18;12.02;;;9.80;;
7253;SDS011;4060;49.186;9.226;2022-12-07T09:57:52;11.32;;;9.00;;
7253;SDS011;4060;49.186;9.226;2022-12-07T10:00:24;10.18;;;9.07;;
7253;SDS011;4060;49.186;9.226;2022-12-07T10:02:55;10.25;;;9.05;;
7253;SDS011;4060;49.186;9.226;2022-12-07T10:05:41;11.13;;;8.82;;
7253;SDS011;4060;49.186;9.226;2022-12-07T10:08:13;9.68;;;7.88;;
7253;SDS011;4060;49.186;9.226;2022-12-07T10:10:43;9.80;;;8.80;;
7253;SDS011;4060;49.186;9.226;2022-12-07T10:13:20;9.52;;;8.32;;
7253;SDS011;4060;49.186;9.226;2022-12-07T10:15:53;10.10;;;8.85;;
7253;SDS011;4060;49.186;9.226;2022-12-07T10:18:28;9.23;;;8.07;;
7253;SDS011;4060;49.186;9.226;2022-12-07T10:21:03;9.55;;;8.45;;
7253;SDS011;4060;49.186;9.226;2022-12-07T10:23:39;9.68;;;8.02;;
7253;SDS011;4060;49.186;9.226;2022-12-07T10:26:21;11.63;;;8.73;;
7253;SDS011;4060;49.186;9.226;2022-12-07T10:29:04;9.15;;;7.72;;
7253;SDS011;4060;49.186;9.226;2022-12-07T10:31:49;8.05;;;6.90;;
7253;SDS011;4060;49.186;9.226;2022-12-07T10:34:23;9.80;;;8.38;;
7253;SDS011;4060;49.186;9.226;2022-12-07T10:37:07;8.32;;;7.50;;
7253;SDS011;4060;49.186;9.226;2022-12-07T10:39:45;9.20;;;8.27;;
7253;SDS011;4060;49.186;9.226;2022-12-07T10:42:16;10.18;;;7.82;;
7253;SDS011;4060;49.186;9.226;2022-12-07T10:44:47;9.48;;;7.65;;
7253;SDS011;4060;49.186;9.226;2022-12-07T10:56:25;8.63;;;7.65;;
7253;SDS011;4060;49.186;9.226;2022-12-07T10:59:15;8.50;;;7.60;;
7253;SDS011;4060;49.186;9.226;2022-12-07T11:02:00;9.45;;;7.75;;
7253;SDS011;4060;49.186;9.226;2022-12-07T11:04:49;9.75;;;8.48;;
7253;SDS011;4060;49.186;9.226;2022-12-07T11:07:36;8.40;;;7.43;;
7253;SDS011;4060;49.186;9.226;2022-12-07T11:10:13;10.35;;;8.23;;
7253;SDS011;4060;49.186;9.226;2022-12-07T11:12:53;8.98;;;8.00;;
7253;SDS011;4060;49.186;9.226;2022-12-07T11:15:36;8.93;;;8.00;;
7253;SDS011;4060;49.186;9.226;2022-12-07T11:18:22;10.15;;;7.60;;
7253;SDS011;4060;49.186;9.226;2022-12-07T11:21:00;8.77;;;7.38;;
7253;SDS011;4060;49.186;9.226;2022-12-07T11:23:46;8.90;;;7.78;;
7253;SDS011;4060;49.186;9.226;2022-12-07T11:26:25;8.80;;;7.68;;
7253;SDS011;4060;49.186;9.226;2022-12-07T11:29:24;8.90;;;7.47;;
7253;SDS011;4060;49.186;9.226;2022-12-07T11:32:20;8.88;;;7.35;;
7253;SDS011;4060;49.186;9.226;2022-12-07T11:35:04;9.32;;;7.53;;
7253;SDS011;4060;49.186;9.226;2022-12-07T11:37:41;9.13;;;8.02;;
7253;SDS011;4060;49.186;9.226;2022-12-07T11:40:14;8.88;;;7.80;;
7253;SDS011;4060;49.186;9.226;2022-12-07T11:42:49;8.77;;;7.57;;
7253;SDS011;4060;49.186;9.226;2022-12-07T11:45:25;9.27;;;7.72;;
7253;SDS011;4060;49.186;9.226;2022-12-07T11:47:58;9.10;;;7.40;;
7253;SDS011;4060;49.186;9.226;2022-12-07T11:50:33;7.43;;;6.55;;
7253;SDS011;4060;49.186;9.226;2022-12-07T11:53:09;8.70;;;7.63;;
7253;SDS011;4060;49.186;9.226;2022-12-07T11:55:47;8.40;;;6.80;;
7253;SDS011;4060;49.186;9.226;2022-12-07T11:58:33;7.90;;;7.10;;
7253;SDS011;4060;49.186;9.226;2022-12-07T12:01:24;8.50;;;7.60;;
7253;SDS011;4060;49.186;9.226;2022-12-07T12:04:06;8.23;;;7.20;;
7253;SDS011;4060;49.186;9.226;2022-12-07T12:06:50;8.13;;;7.18;;
7253;SDS011;4060;49.186;9.226;2022-12-07T12:09:24;8.05;;;7.25;;
7253;SDS011;4060;49.186;9.226;2022-12-07T12:15:06;9.63;;;7.63;;
7253;SDS011;4060;49.186;9.226;2022-12-07T12:20:52;8.60;;;7.68;;
7253;SDS011;4060;49.186;9.226;2022-12-07T12:23:27;9.40;;;8.43;;
7253;SDS011;4060;49.186;9.226;2022-12-07T12:26:12;8.93;;;8.00;;
7253;SDS011;4060;49.186;9.226;2022-12-07T12:28:51;8.00;;;6.85;;
7253;SDS011;4060;49.186;9.226;2022-12-07T12:31:35;9.80;;;7.82;;
7253;SDS011;4060;49.186;9.226;2022-12-07T12:49:32;9.70;;;8.30;;
7253;SDS011;4060;49.186;9.226;2022-12-07T12:55:17;8.30;;;7.22;;
7253;SDS011;4060;49.186;9.226;2022-12-07T13:03:55;8.57;;;7.45;;
7253;SDS011;4060;49.186;9.226;2022-12-07T13:06:35;8.85;;;7.70;;
7253;SDS011;4060;49.186;9.226;2022-12-07T13:09:15;9.27;;;8.15;;
7253;SDS011;4060;49.186;9.226;2022-12-07T13:11:50;8.95;;;8.05;;
7253;SDS011;4060;49.186;9.226;2022-12-07T13:14:52;10.43;;;7.72;;
7253;SDS011;4060;49.186;9.226;2022-12-07T13:20:51;9.65;;;7.68;;
7253;SDS011;4060;49.186;9.226;2022-12-07T13:23:27;7.47;;;6.68;;
7253;SDS011;4060;49.186;9.226;2022-12-07T13:26:05;8.45;;;7.55;;
7253;SDS011;4060;49.186;9.226;2022-12-07T13:28:45;8.50;;;7.43;;
7253;SDS011;4060;49.186;9.226;2022-12-07T13:34:01;8.20;;;7.30;;
7253;SDS011;4060;49.186;9.226;2022-12-07T13:36:36;8.73;;;7.82;;
7253;SDS011;4060;49.186;9.226;2022-12-07T13:39:15;9.32;;;7.88;;
7253;SDS011;4060;49.186;9.226;2022-12-07T13:41:51;10.60;;;7.53;;
7253;SDS011;4060;49.186;9.226;2022-12-07T13:44:22;8.77;;;7.45;;
7253;SDS011;4060;49.186;9.226;2022-12-07T13:46:59;9.63;;;7.97;;
7253;SDS011;4060;49.186;9.226;2022-12-07T13:49:37;8.52;;;7.57;;
7253;SDS011;4060;49.186;9.226;2022-12-07T13:52:19;8.38;;;7.53;;
7253;SDS011;4060;49.186;9.226;2022-12-07T13:54:56;9.23;;;7.97;;
7253;SDS011;4060;49.186;9.226;2022-12-07T13:57:28;8.40;;;7.57;;
7253;SDS011;4060;49.186;9.226;2022-12-07T14:00:00;10.77;;;8.18;;
7253;SDS011;4060;49.186;9.226;2022-12-07T14:02:52;9.73;;;7.40;;
7253;SDS011;4060;49.186;9.226;2022-12-07T14:05:38;7.95;;;7.13;;
7253;SDS011;4060;49.186;9.226;2022-12-07T14:08:23;10.73;;;8.50;;
7253;SDS011;4060;49.186;9.226;2022-12-07T14:10:54;8.45;;;7.57;;
7253;SDS011;4060;49.186;9.226;2022-12-07T14:13:27;8.48;;;7.57;;
7253;SDS011;4060;49.186;9.226;2022-12-07T14:16:00;8.70;;;7.78;;
7253;SDS011;4060;49.186;9.226;2022-12-07T14:18:36;8.10;;;7.30;;
7253;SDS011;4060;49.186;9.226;2022-12-07T14:21:14;10.45;;;7.97;;
7253;SDS011;4060;49.186;9.226;2022-12-07T14:23:54;9.27;;;7.93;;
7253;SDS011;4060;49.186;9.226;2022-12-07T14:26:51;9.15;;;8.25;;
7253;SDS011;4060;49.186;9.226;2022-12-07T14:29:32;9.43;;;7.97;;
7253;SDS011;4060;49.186;9.226;2022-12-07T14:32:13;8.82;;;7.93;;
7253;SDS011;4060;49.186;9.226;2022-12-07T14:34:58;9.35;;;8.38;;
7253;SDS011;4060;49.186;9.226;2022-12-07T14:37:29;9.30;;;7.57;;
7253;SDS011;4060;49.186;9.226;2022-12-07T14:40:01;9.73;;;8.20;;
7253;SDS011;4060;49.186;9.226;2022-12-07T14:42:31;9.32;;;7.88;;
7253;SDS011;4060;49.186;9.226;2022-12-07T14:45:01;10.30;;;8.10;;
7253;SDS011;4060;49.186;9.226;2022-12-07T14:47:30;9.60;;;8.10;;
7253;SDS011;4060;49.186;9.226;2022-12-07T14:50:00;8.77;;;7.88;;
7253;SDS011;4060;49.186;9.226;2022-12-07T14:52:29;9.40;;;8.50;;
7253;SDS011;4060;49.186;9.226;2022-12-07T14:55:01;13.07;;;9.32;;
7253;SDS011;4060;49.186;9.226;2022-12-07T14:57:30;9.88;;;8.23;;
7253;SDS011;4060;49.186;9.226;2022-12-07T15:00:00;11.30;;;8.68;;
7253;SDS011;4060;49.186;9.226;2022-12-07T15:02:30;10.40;;;8.45;;
7253;SDS011;4060;49.186;9.226;2022-12-07T15:05:00;12.20;;;8.40;;
7253;SDS011;4060;49.186;9.226;2022-12-07T15:07:29;9.93;;;8.73;;
7253;SDS011;4060;49.186;9.226;2022-12-07T15:10:01;9.85;;;8.57;;
7253;SDS011;4060;49.186;9.226;2022-12-07T15:12:32;10.32;;;8.38;;
7253;SDS011;4060;49.186;9.226;2022-12-07T15:15:01;9.38;;;7.78;;
7253;SDS011;4060;49.186;9.226;2022-12-07T15:17:31;10.13;;;8.98;;
7253;SDS011;4060;49.186;9.226;2022-12-07T15:20:00;10.40;;;8.50;;
7253;SDS011;4060;49.186;9.226;2022-12-07T15:22:30;10.02;;;8.82;;
7253;SDS011;4060;49.186;9.226;2022-12-07T15:25:01;10.48;;;8.25;;
7253;SDS011;4060;49.186;9.226;2022-12-07T15:27:32;9.27;;;8.07;;
7253;SDS011;4060;49.186;9.226;2022-12-07T15:30:02;9.82;;;8.02;;
7253;SDS011;4060;49.186;9.226;2022-12-07T15:32:32;10.50;;;8.90;;
7253;SDS011;4060;49.186;9.226;2022-12-07T15:35:02;8.80;;;7.72;;
7253;SDS011;4060;49.186;9.226;2022-12-07T15:37:32;9.75;;;8.70;;
7253;SDS011;4060;49.186;9.226;2022-12-07T15:40:04;9.15;;;8.18;;
7253;SDS011;4060;49.186;9.226;2022-12-07T15:42:36;11.70;;;9.60;;
7253;SDS011;4060;49.186;9.226;2022-12-07T15:45:06;10.80;;;8.65;;
7253;SDS011;4060;49.186;9.226;2022-12-07T15:47:35;10.38;;;8.65;;
7253;SDS011;4060;49.186;9.226;2022-12-07T15:50:07;12.48;;;9.48;;
7253;SDS011;4060;49.186;9.226;2022-12-07T15:52:39;9.52;;;8.50;;
7253;SDS011;4060;49.186;9.226;2022-12-07T15:55:10;10.32;;;8.65;;
7253;SDS011;4060;49.186;9.226;2022-12-07T15:57:40;9.65;;;8.65;;
7253;SDS011;4060;49.186;9.226;2022-12-07T16:00:10;10.65;;;8.73;;
7253;SDS011;4060;49.186;9.226;2022-12-07T16:02:40;10.25;;;8.15;;
7253;SDS011;4060;49.186;9.226;2022-12-07T16:05:10;10.77;;;8.70;;
7253;SDS011;4060;49.186;9.226;2022-12-07T16:07:40;9.52;;;8.52;;
7253;SDS011;4060;49.186;9.226;2022-12-07T16:10:14;10.23;;;7.90;;
7253;SDS011;4060;49.186;9.226;2022-12-07T16:12:44;9.55;;;8.40;;
7253;SDS011;4060;49.186;9.226;2022-12-07T16:15:14;11.73;;;9.38;;
7253;SDS011;4060;49.186;9.226;2022-12-07T16:17:43;10.75;;;8.90;;
7253;SDS011;4060;49.186;9.226;2022-12-07T16:20:13;12.27;;;9.48;;
7253;SDS011;4060;49.186;9.226;2022-12-07T16:22:42;10.98;;;8.63;;
7253;SDS011;4060;49.186;9.226;2022-12-07T16:25:14;8.77;;;7.78;;
7253;SDS011;4060;49.186;9.226;2022-12-07T16:27:44;9.65;;;8.63;;
7253;SDS011;4060;49.186;9.226;2022-12-07T16:30:14;9.30;;;7.53;;
7253;SDS011;4060;49.186;9.226;2022-12-07T16:32:44;10.55;;;8.73;;
7253;SDS011;4060;49.186;9.226;2022-12-07T16:35:13;9.95;;;8.85;;
7253;SDS011;4060;49.186;9.226;2022-12-07T16:37:43;9.45;;;8.50;;